Coco River, Florida
Current Conditions -  °F | °C
As of 11:53 PM on Sunday 19 Oct 2014 (Local Time) from KAPF Reporting Station
Clear Clear  
Wind Chill: 71°   Ceiling: Unl
Heat Index: 71°   Visibility: 10mi
Dew Point: 64°   Wind: 8mph
Humidity: 78%   Direction: 80°E
Pressure: 30.02"   Gusts: NA
Location:  26.2451°N, 81.8067°W
Report Text: KAPF 200353Z AUTO 08007KT 10SM CLR 22/18 A3002 RMK AO2 SLP163 T02170178 $
Loading
Personal Weather Stations






























Interactive Weather Map
Tropical Storm Tracking
New forecast layout! Learn more

10-Day Weather Forecast

Advertisements
Track Severe Weather on mobile